createdAt,value
2022-10-30T00:01:06.602Z,9.40
2022-10-30T00:03:33.944Z,9.52
2022-10-30T00:06:05.190Z,9.18
2022-10-30T00:08:32.713Z,8.90
2022-10-30T00:11:13.282Z,8.40
2022-10-30T00:13:44.075Z,8.63
2022-10-30T00:16:11.614Z,8.00
2022-10-30T00:18:39.843Z,9.07
2022-10-30T00:21:09.686Z,8.32
2022-10-30T00:23:37.006Z,8.95
2022-10-30T00:26:05.930Z,8.70
2022-10-30T00:28:33.741Z,8.70
2022-10-30T00:31:03.127Z,9.35
2022-10-30T00:33:30.867Z,8.60
2022-10-30T00:36:00.372Z,9.20
2022-10-30T00:38:27.693Z,9.25
2022-10-30T00:40:54.914Z,8.50
2022-10-30T00:43:48.715Z,8.68
2022-10-30T00:46:15.977Z,9.40
2022-10-30T00:48:47.780Z,9.10
2022-10-30T00:51:15.588Z,9.00
2022-10-30T00:53:43.525Z,8.60
2022-10-30T00:56:12.759Z,8.70
2022-10-30T00:58:44.856Z,9.40
2022-10-30T01:01:17.672Z,8.15
2022-10-30T01:03:46.573Z,8.60
2022-10-30T01:06:15.903Z,9.73
2022-10-30T01:08:43.877Z,9.15
2022-10-30T01:11:12.301Z,9.07
2022-10-30T01:13:41.115Z,9.90
2022-10-30T01:16:21.476Z,9.85
2022-10-30T01:18:54.058Z,9.65
2022-10-30T01:21:54.682Z,9.35
2022-10-30T01:24:24.650Z,9.63
2022-10-30T01:27:00.012Z,10.00
2022-10-30T01:30:02.246Z,10.25
2022-10-30T01:32:49.591Z,10.68
2022-10-30T01:35:27.705Z,10.35
2022-10-30T01:38:02.797Z,10.90
2022-10-30T01:40:30.174Z,11.57
2022-10-30T01:42:58.628Z,10.98
2022-10-30T01:45:50.234Z,10.60
2022-10-30T01:48:49.375Z,10.38
2022-10-30T01:51:34.672Z,10.65
2022-10-30T01:54:32.410Z,10.52
2022-10-30T01:57:04.408Z,11.50
2022-10-30T01:59:39.386Z,11.30
2022-10-30T02:02:09.082Z,11.10
2022-10-30T02:04:38.626Z,11.85
2022-10-30T02:07:06.456Z,12.02
2022-10-30T02:09:40.297Z,12.45
2022-10-30T02:12:09.113Z,13.15
2022-10-30T02:14:42.213Z,11.38
2022-10-30T02:17:11.583Z,10.95
2022-10-30T02:19:39.020Z,12.20
2022-10-30T02:22:06.375Z,12.57
2022-10-30T02:24:33.686Z,12.40
2022-10-30T02:27:01.650Z,12.00
2022-10-30T02:29:29.306Z,12.90
2022-10-30T02:31:56.599Z,13.13
2022-10-30T02:34:23.923Z,13.20
2022-10-30T02:36:51.216Z,13.40
2022-10-30T02:39:21.208Z,13.32
2022-10-30T02:41:48.681Z,12.23
2022-10-30T02:44:15.966Z,11.13
2022-10-30T02:46:43.260Z,11.45
2022-10-30T02:49:10.664Z,10.25
2022-10-30T02:51:37.960Z,11.02
2022-10-30T02:54:05.371Z,10.43
2022-10-30T02:56:32.946Z,9.70
2022-10-30T02:59:00.987Z,10.35
2022-10-30T03:01:28.824Z,10.30
2022-10-30T03:03:58.470Z,8.98
2022-10-30T03:06:25.806Z,9.07
2022-10-30T03:08:53.079Z,9.25
2022-10-30T03:11:21.227Z,9.32
2022-10-30T03:13:49.406Z,8.90
2022-10-30T03:16:21.619Z,8.77
2022-10-30T03:18:51.211Z,9.73
2022-10-30T03:21:21.133Z,9.55
2022-10-30T03:23:50.449Z,9.80
2022-10-30T03:26:18.949Z,9.30
2022-10-30T03:28:56.314Z,9.43
2022-10-30T03:31:23.557Z,9.52
2022-10-30T03:34:13.745Z,9.57
2022-10-30T03:36:42.388Z,9.13
2022-10-30T03:39:09.835Z,9.82
2022-10-30T03:41:37.941Z,9.25
2022-10-30T03:44:05.209Z,10.18
2022-10-30T03:46:32.543Z,10.52
2022-10-30T03:49:15.090Z,9.45
2022-10-30T03:51:43.248Z,9.30
2022-10-30T03:54:10.454Z,9.45
2022-10-30T03:56:38.936Z,9.43
2022-10-30T03:59:08.532Z,8.77
2022-10-30T04:01:39.426Z,9.55
2022-10-30T04:04:06.812Z,9.30
2022-10-30T04:06:34.093Z,9.77
2022-10-30T04:09:02.247Z,9.60
2022-10-30T04:11:36.077Z,9.32
2022-10-30T04:14:03.332Z,9.07
2022-10-30T04:16:30.628Z,9.38
2022-10-30T04:18:59.456Z,9.10
2022-10-30T04:21:27.972Z,9.35
2022-10-30T04:23:55.238Z,10.20
2022-10-30T04:26:24.446Z,9.95
2022-10-30T04:28:51.711Z,10.05
2022-10-30T04:31:19.176Z,10.55
2022-10-30T04:33:46.692Z,10.02
2022-10-30T04:36:13.903Z,10.48
2022-10-30T04:38:41.214Z,9.55
2022-10-30T04:41:13.056Z,9.85
2022-10-30T04:43:52.112Z,10.30
2022-10-30T04:46:19.629Z,10.13
2022-10-30T04:48:46.906Z,10.40
2022-10-30T04:51:15.980Z,9.98
2022-10-30T04:53:44.733Z,9.98
2022-10-30T04:56:15.108Z,10.20
2022-10-30T04:58:42.443Z,9.68
2022-10-30T05:01:10.120Z,10.32
2022-10-30T05:03:38.339Z,10.90
2022-10-30T05:06:26.531Z,9.90
2022-10-30T05:08:55.683Z,10.02
2022-10-30T05:11:38.808Z,10.10
2022-10-30T05:14:07.120Z,11.20
2022-10-30T05:16:34.391Z,11.82
2022-10-30T05:19:04.012Z,12.35
2022-10-30T05:21:32.174Z,11.75
2022-10-30T05:23:59.384Z,13.68
2022-10-30T05:26:28.371Z,14.20
2022-10-30T05:28:55.686Z,15.82
2022-10-30T05:31:23.087Z,15.38
2022-10-30T05:33:53.303Z,13.50
2022-10-30T05:36:21.910Z,12.32
2022-10-30T05:38:49.637Z,11.77
2022-10-30T05:41:28.040Z,12.82
2022-10-30T05:43:55.346Z,12.88
2022-10-30T05:46:22.840Z,12.70
2022-10-30T05:48:50.207Z,12.50
2022-10-30T05:51:19.117Z,12.57
2022-10-30T05:53:52.532Z,12.70
2022-10-30T05:56:23.376Z,12.77
2022-10-30T05:58:50.921Z,11.85
2022-10-30T06:01:18.246Z,12.93
2022-10-30T06:03:50.187Z,11.63
2022-10-30T06:06:17.527Z,12.48
2022-10-30T06:08:45.364Z,12.73
2022-10-30T06:11:35.685Z,11.95
2022-10-30T06:14:03.268Z,10.90
2022-10-30T06:16:41.091Z,10.55
2022-10-30T06:19:40.478Z,11.45
2022-10-30T06:22:21.944Z,10.68
2022-10-30T06:24:55.924Z,10.63
2022-10-30T06:27:41.693Z,10.33
2022-10-30T06:30:09.272Z,11.13
2022-10-30T06:32:36.674Z,11.02
2022-10-30T06:35:04.556Z,10.35
2022-10-30T06:37:31.835Z,9.63
2022-10-30T06:40:03.644Z,9.50
2022-10-30T06:42:51.785Z,9.77
2022-10-30T06:45:40.891Z,9.70
2022-10-30T06:48:09.396Z,9.10
2022-10-30T06:50:41.521Z,9.60
2022-10-30T06:53:08.873Z,10.27
2022-10-30T06:55:36.880Z,10.85
2022-10-30T06:58:24.170Z,11.13
2022-10-30T07:01:04.079Z,10.75
2022-10-30T07:03:56.200Z,11.20
2022-10-30T07:06:24.004Z,10.88
2022-10-30T07:08:51.241Z,10.80
2022-10-30T07:11:19.980Z,9.60
2022-10-30T07:14:13.532Z,10.07
2022-10-30T07:16:48.543Z,8.97
2022-10-30T07:19:16.403Z,9.82
2022-10-30T07:21:44.690Z,8.80
2022-10-30T07:24:11.907Z,8.93
2022-10-30T07:26:51.795Z,8.05
2022-10-30T07:29:34.117Z,8.13
2022-10-30T07:32:20.613Z,9.40
2022-10-30T07:35:14.946Z,10.02
2022-10-30T07:38:14.705Z,9.35
2022-10-30T07:40:57.985Z,9.50
2022-10-30T07:43:49.465Z,8.88
2022-10-30T07:46:45.204Z,8.90
2022-10-30T07:49:31.038Z,9.88
2022-10-30T07:52:02.758Z,9.75
2022-10-30T07:54:30.201Z,9.82
2022-10-30T07:57:04.893Z,9.60
2022-10-30T07:59:50.807Z,8.13
2022-10-30T08:02:40.337Z,8.50
2022-10-30T08:05:34.965Z,8.48
2022-10-30T08:08:11.398Z,8.73
2022-10-30T08:10:39.157Z,8.63
2022-10-30T08:13:06.549Z,9.70
2022-10-30T08:15:33.910Z,9.15
2022-10-30T08:18:02.901Z,8.40
2022-10-30T08:20:30.240Z,9.18
2022-10-30T08:22:59.641Z,8.55
2022-10-30T08:25:29.121Z,8.60
2022-10-30T08:28:05.477Z,8.43
2022-10-30T08:30:37.927Z,8.77
2022-10-30T08:33:10.127Z,9.60
2022-10-30T08:35:58.843Z,9.82
2022-10-30T08:38:28.011Z,9.45
2022-10-30T08:41:18.037Z,9.88
2022-10-30T08:43:48.692Z,11.20
2022-10-30T08:46:16.041Z,9.80
2022-10-30T08:48:43.279Z,9.23
2022-10-30T08:51:10.589Z,10.20
2022-10-30T08:53:43.862Z,11.63
2022-10-30T08:56:14.486Z,11.48
2022-10-30T08:59:13.765Z,12.95
2022-10-30T09:01:47.670Z,13.88
2022-10-30T09:04:21.453Z,12.77
2022-10-30T09:07:10.271Z,11.23
2022-10-30T09:09:52.103Z,11.40
2022-10-30T09:12:19.477Z,13.50
2022-10-30T09:14:47.659Z,10.50
2022-10-30T09:17:14.892Z,14.68
2022-10-30T09:19:45.637Z,15.02
2022-10-30T09:22:18.450Z,15.07
2022-10-30T09:24:47.279Z,15.45
2022-10-30T09:27:38.806Z,14.63
2022-10-30T09:30:08.265Z,15.68
2022-10-30T09:32:41.293Z,17.20
2022-10-30T09:35:11.298Z,18.35
2022-10-30T09:37:40.565Z,19.25
2022-10-30T09:40:29.758Z,19.42
2022-10-30T09:43:28.038Z,18.95
2022-10-30T09:46:19.960Z,19.13
2022-10-30T09:48:54.405Z,19.25
2022-10-30T09:51:49.078Z,18.52
2022-10-30T09:54:36.145Z,17.17
2022-10-30T09:57:17.062Z,16.42
2022-10-30T10:00:16.464Z,14.98
2022-10-30T10:02:49.683Z,14.98
2022-10-30T10:05:32.413Z,15.95
2022-10-30T10:08:47.808Z,14.05
2022-10-30T10:11:45.551Z,12.52
2022-10-30T10:14:23.994Z,12.90
2022-10-30T10:16:56.483Z,13.02
2022-10-30T10:19:39.167Z,14.43
2022-10-30T10:22:20.391Z,13.38
2022-10-30T10:24:48.405Z,17.92
2022-10-30T10:27:31.225Z,16.00
2022-10-30T10:30:17.444Z,14.75
2022-10-30T10:33:05.986Z,19.95
2022-10-30T10:35:36.032Z,17.00
2022-10-30T10:38:21.094Z,16.33
2022-10-30T10:41:00.292Z,20.07
2022-10-30T10:43:58.151Z,17.52
2022-10-30T10:46:38.171Z,19.52
2022-10-30T10:49:23.994Z,20.05
2022-10-30T10:51:56.922Z,15.45
2022-10-30T10:54:34.486Z,19.60
2022-10-30T10:57:06.682Z,21.05
2022-10-30T10:59:46.660Z,20.77
2022-10-30T11:02:33.195Z,20.60
2022-10-30T11:05:07.694Z,21.15
2022-10-30T11:07:43.843Z,20.67
2022-10-30T11:10:15.847Z,19.52
2022-10-30T11:12:43.456Z,21.17
2022-10-30T11:15:51.785Z,18.52
2022-10-30T11:18:19.772Z,19.30
2022-10-30T11:21:00.821Z,17.58
2022-10-30T11:23:34.389Z,19.70
2022-10-30T11:26:03.390Z,20.05
2022-10-30T11:28:45.168Z,19.45
2022-10-30T11:31:35.075Z,18.52
2022-10-30T11:34:14.887Z,18.73
2022-10-30T11:36:43.076Z,15.65
2022-10-30T11:39:31.688Z,17.45
2022-10-30T11:42:04.339Z,16.08
2022-10-30T11:44:38.418Z,17.35
2022-10-30T11:47:07.354Z,18.40
2022-10-30T11:49:49.083Z,16.77
2022-10-30T11:52:19.530Z,15.30
2022-10-30T11:54:50.549Z,14.82
2022-10-30T11:57:33.713Z,18.83
2022-10-30T12:00:05.225Z,18.40
2022-10-30T12:02:44.257Z,16.13
2022-10-30T12:05:43.710Z,18.15
2022-10-30T12:08:18.839Z,16.10
2022-10-30T12:10:55.274Z,14.93
2022-10-30T12:13:24.572Z,17.40
2022-10-30T12:16:05.759Z,18.55
2022-10-30T12:18:33.630Z,18.40
2022-10-30T12:21:02.673Z,17.38
2022-10-30T12:23:31.009Z,18.45
2022-10-30T12:26:01.630Z,18.85
2022-10-30T12:28:31.539Z,17.08
2022-10-30T12:31:13.953Z,18.27
2022-10-30T12:36:47.805Z,15.73
2022-10-30T12:39:44.823Z,18.55
2022-10-30T12:42:17.464Z,15.57
2022-10-30T12:44:50.154Z,16.50
2022-10-30T12:47:29.448Z,15.50
2022-10-30T12:53:05.150Z,16.00
2022-10-30T12:55:39.449Z,16.15
2022-10-30T12:58:33.179Z,16.02
2022-10-30T13:01:26.698Z,16.77
2022-10-30T13:04:07.037Z,17.05
2022-10-30T13:06:46.351Z,15.02
2022-10-30T13:09:23.853Z,15.00
2022-10-30T13:12:16.810Z,17.20
2022-10-30T13:14:55.576Z,15.68
2022-10-30T13:17:23.736Z,15.13
2022-10-30T13:19:51.135Z,12.65
2022-10-30T13:22:29.247Z,11.68
2022-10-30T13:25:08.391Z,10.27
2022-10-30T13:27:57.482Z,15.25
2022-10-30T13:30:34.304Z,13.85
2022-10-30T13:33:24.058Z,12.65
2022-10-30T13:35:56.838Z,13.10
2022-10-30T13:38:30.410Z,11.07
2022-10-30T13:41:11.699Z,11.15
2022-10-30T13:44:12.448Z,10.32
2022-10-30T13:47:16.774Z,11.13
2022-10-30T13:49:52.847Z,10.40
2022-10-30T13:52:22.273Z,9.77
2022-10-30T13:55:04.418Z,9.98
2022-10-30T13:57:52.087Z,11.57
2022-10-30T14:00:20.909Z,10.25
2022-10-30T14:03:26.413Z,10.52
2022-10-30T14:06:15.796Z,9.88
2022-10-30T14:09:04.117Z,8.10
2022-10-30T14:11:31.495Z,8.00
2022-10-30T14:14:05.582Z,10.00
2022-10-30T14:16:35.964Z,8.70
2022-10-30T14:19:21.294Z,10.13
2022-10-30T14:21:56.818Z,8.77
2022-10-30T14:27:05.207Z,8.90
2022-10-30T14:29:38.270Z,10.27
2022-10-30T14:32:14.751Z,8.60
2022-10-30T14:35:01.610Z,9.55
2022-10-30T14:37:29.763Z,9.20
2022-10-30T14:40:17.655Z,7.05
2022-10-30T14:42:57.600Z,8.25
2022-10-30T14:45:45.855Z,6.07
2022-10-30T14:48:28.563Z,5.63
2022-10-30T14:51:05.747Z,4.78
2022-10-30T14:53:54.601Z,4.22
2022-10-30T14:56:41.076Z,4.82
2022-10-30T14:59:14.350Z,4.13
2022-10-30T15:02:27.921Z,3.75
2022-10-30T15:05:34.499Z,4.00
2022-10-30T15:08:26.157Z,3.78
2022-10-30T15:11:18.227Z,4.22
2022-10-30T15:14:05.925Z,3.60
2022-10-30T15:16:37.848Z,3.80
2022-10-30T15:19:07.974Z,4.00
2022-10-30T15:21:43.737Z,4.15
2022-10-30T15:24:31.146Z,3.80
2022-10-30T15:27:01.804Z,4.18
2022-10-30T15:29:32.225Z,4.07
2022-10-30T15:32:05.632Z,4.13
2022-10-30T15:34:37.709Z,4.05
2022-10-30T15:37:13.258Z,3.42
2022-10-30T15:39:43.719Z,3.85
2022-10-30T15:42:16.727Z,3.90
2022-10-30T15:44:49.844Z,3.50
2022-10-30T15:47:20.863Z,3.83
2022-10-30T15:49:57.204Z,4.70
2022-10-30T15:52:30.565Z,6.03
2022-10-30T15:55:02.809Z,5.63
2022-10-30T15:58:01.563Z,6.07
2022-10-30T16:00:34.697Z,5.32
2022-10-30T16:03:06.486Z,5.78
2022-10-30T16:05:34.726Z,5.70
2022-10-30T16:08:04.623Z,6.68
2022-10-30T16:10:36.213Z,7.05
2022-10-30T16:13:04.215Z,7.40
2022-10-30T16:15:39.041Z,6.60
2022-10-30T16:18:18.221Z,7.00
2022-10-30T16:20:49.813Z,7.20
2022-10-30T16:23:19.986Z,7.70
2022-10-30T16:25:52.959Z,7.15
2022-10-30T16:28:25.559Z,7.13
2022-10-30T16:30:53.615Z,7.28
2022-10-30T16:33:26.192Z,7.57
2022-10-30T16:35:55.903Z,7.13
2022-10-30T16:38:26.527Z,7.45
2022-10-30T16:40:54.223Z,6.60
2022-10-30T16:43:30.168Z,7.50
2022-10-30T16:46:09.563Z,7.60
2022-10-30T16:48:36.984Z,7.85
2022-10-30T16:51:04.627Z,7.50
2022-10-30T16:53:32.437Z,8.30
2022-10-30T16:56:00.104Z,8.02
2022-10-30T16:58:30.665Z,8.48
2022-10-30T17:01:05.657Z,9.00
2022-10-30T17:03:38.169Z,9.43
2022-10-30T17:06:24.581Z,9.88
2022-10-30T17:08:53.628Z,9.85
2022-10-30T17:11:44.634Z,9.57
2022-10-30T17:14:23.201Z,9.90
2022-10-30T17:16:56.043Z,9.52
2022-10-30T17:19:32.543Z,9.60
2022-10-30T17:22:04.635Z,9.75
2022-10-30T17:24:34.248Z,9.00
2022-10-30T17:27:07.920Z,10.25
2022-10-30T17:29:38.182Z,9.55
2022-10-30T17:32:14.762Z,9.93
2022-10-30T17:34:41.967Z,9.63
2022-10-30T17:37:09.177Z,9.73
2022-10-30T17:39:36.373Z,10.57
2022-10-30T17:42:04.737Z,10.90
2022-10-30T17:44:35.330Z,9.93
2022-10-30T17:47:18.233Z,10.95
2022-10-30T17:49:45.922Z,9.23
2022-10-30T17:52:14.739Z,10.02
2022-10-30T17:54:42.673Z,9.65
2022-10-30T17:57:11.706Z,10.00
2022-10-30T17:59:39.764Z,9.77
2022-10-30T18:02:14.161Z,10.18
2022-10-30T18:04:44.843Z,11.48
2022-10-30T18:07:13.862Z,11.15
2022-10-30T18:09:42.034Z,13.07
2022-10-30T18:12:14.060Z,14.32
2022-10-30T18:14:43.166Z,13.32
2022-10-30T18:17:11.107Z,13.38
2022-10-30T18:19:38.553Z,13.10
2022-10-30T18:22:06.344Z,12.68
2022-10-30T18:24:33.647Z,13.05
2022-10-30T18:27:01.114Z,12.50
2022-10-30T18:29:28.453Z,13.23
2022-10-30T18:31:55.706Z,14.02
2022-10-30T18:34:23.036Z,14.43
2022-10-30T18:36:50.357Z,13.68
2022-10-30T18:39:17.567Z,14.27
2022-10-30T18:41:46.442Z,14.40
2022-10-30T18:44:15.524Z,14.07
2022-10-30T18:46:43.005Z,12.50
2022-10-30T18:49:10.540Z,14.02
2022-10-30T18:51:38.212Z,14.18
2022-10-30T18:54:15.428Z,14.32
2022-10-30T18:56:42.830Z,16.75
2022-10-30T18:59:10.061Z,17.20
2022-10-30T19:01:37.961Z,18.85
2022-10-30T19:04:09.992Z,15.80
2022-10-30T19:06:38.710Z,18.20
2022-10-30T19:09:06.734Z,17.60
2022-10-30T19:11:34.890Z,18.10
2022-10-30T19:14:03.648Z,15.75
2022-10-30T19:16:31.150Z,14.05
2022-10-30T19:18:58.380Z,14.38
2022-10-30T19:21:26.543Z,14.98
2022-10-30T19:23:58.023Z,15.35
2022-10-30T19:26:25.253Z,14.05
2022-10-30T19:28:52.509Z,13.88
2022-10-30T19:31:20.952Z,14.40
2022-10-30T19:33:52.849Z,14.32
2022-10-30T19:36:36.891Z,14.68
2022-10-30T19:39:10.375Z,15.25
2022-10-30T19:41:38.632Z,14.88
2022-10-30T19:44:06.371Z,13.85
2022-10-30T19:46:34.289Z,12.75
2022-10-30T19:49:18.916Z,14.90
2022-10-30T19:51:47.552Z,14.68
2022-10-30T19:54:14.962Z,14.60
2022-10-30T19:56:43.963Z,14.38
2022-10-30T19:59:13.986Z,14.57
2022-10-30T20:01:41.622Z,14.52
2022-10-30T20:04:09.636Z,13.98
2022-10-30T20:06:36.912Z,12.55
2022-10-30T20:09:05.373Z,12.82
2022-10-30T20:11:32.699Z,12.93
2022-10-30T20:13:59.971Z,13.45
2022-10-30T20:16:27.477Z,13.65
2022-10-30T20:18:54.759Z,12.65
2022-10-30T20:21:22.083Z,13.20
2022-10-30T20:23:51.069Z,13.38
2022-10-30T20:26:29.443Z,13.65
2022-10-30T20:28:57.364Z,14.75
2022-10-30T20:31:25.166Z,14.20
2022-10-30T20:33:52.463Z,14.05
2022-10-30T20:36:19.684Z,13.73
2022-10-30T20:38:46.970Z,14.40
2022-10-30T20:41:24.439Z,12.90
2022-10-30T20:43:52.250Z,12.57
2022-10-30T20:46:20.380Z,12.82
2022-10-30T20:48:48.058Z,13.38
2022-10-30T20:51:15.693Z,12.73
2022-10-30T20:53:43.067Z,13.10
2022-10-30T20:56:11.623Z,12.60
2022-10-30T20:58:39.315Z,12.50
2022-10-30T21:01:06.719Z,11.45
2022-10-30T21:03:34.017Z,11.68
2022-10-30T21:06:02.062Z,13.43
2022-10-30T21:08:33.675Z,13.10
2022-10-30T21:11:02.191Z,13.10
2022-10-30T21:13:30.455Z,13.00
2022-10-30T21:16:02.740Z,13.35
2022-10-30T21:18:30.570Z,13.02
2022-10-30T21:21:06.873Z,11.98
2022-10-30T21:23:34.578Z,13.05
2022-10-30T21:26:03.970Z,12.85
2022-10-30T21:28:31.518Z,13.02
2022-10-30T21:31:07.342Z,12.60
2022-10-30T21:33:35.892Z,12.35
2022-10-30T21:36:14.470Z,13.23
2022-10-30T21:38:43.200Z,11.73
2022-10-30T21:41:12.977Z,12.57
2022-10-30T21:43:40.433Z,11.95
2022-10-30T21:46:10.725Z,11.95
2022-10-30T21:48:38.588Z,11.63
2022-10-30T21:51:15.735Z,11.23
2022-10-30T21:53:44.152Z,12.82
2022-10-30T21:56:17.346Z,13.73
2022-10-30T21:58:45.137Z,12.30
2022-10-30T22:01:23.979Z,13.27
2022-10-30T22:03:51.719Z,13.35
2022-10-30T22:06:20.833Z,12.88
2022-10-30T22:08:50.729Z,12.82
2022-10-30T22:11:18.956Z,11.77
2022-10-30T22:13:47.403Z,11.40
2022-10-30T22:16:15.403Z,12.25
2022-10-30T22:18:42.795Z,12.32
2022-10-30T22:21:12.123Z,13.25
2022-10-30T22:23:40.908Z,12.55
2022-10-30T22:26:12.375Z,12.85
2022-10-30T22:28:39.651Z,12.25
2022-10-30T22:31:09.722Z,12.30
2022-10-30T22:33:37.154Z,12.23
2022-10-30T22:36:06.733Z,11.68
2022-10-30T22:38:35.110Z,12.45
2022-10-30T22:41:20.526Z,12.15
2022-10-30T22:43:48.958Z,12.32
2022-10-30T22:46:18.624Z,12.40
2022-10-30T22:48:46.011Z,11.98
2022-10-30T22:51:15.475Z,12.88
2022-10-30T22:53:47.355Z,13.02
2022-10-30T22:56:15.500Z,11.15
2022-10-30T22:58:43.545Z,12.20
2022-10-30T23:01:26.081Z,12.43
2022-10-30T23:03:56.245Z,10.60
2022-10-30T23:06:24.380Z,11.90
2022-10-30T23:08:53.013Z,12.50
2022-10-30T23:11:20.974Z,12.20
2022-10-30T23:13:48.505Z,12.32
2022-10-30T23:16:22.000Z,11.80
2022-10-30T23:18:50.827Z,11.65
2022-10-30T23:21:26.444Z,12.57
2022-10-30T23:23:54.245Z,12.35
2022-10-30T23:26:24.333Z,11.00
2022-10-30T23:28:53.697Z,12.30
2022-10-30T23:31:27.369Z,11.48
2022-10-30T23:33:57.745Z,10.68
2022-10-30T23:36:25.341Z,11.05
2022-10-30T23:38:58.155Z,11.07
2022-10-30T23:41:30.980Z,11.00
2022-10-30T23:44:07.698Z,10.98
2022-10-30T23:46:35.690Z,11.70
2022-10-30T23:49:04.105Z,11.23
2022-10-30T23:51:31.872Z,10.63
2022-10-30T23:53:59.485Z,10.50
2022-10-30T23:56:28.135Z,11.63
2022-10-30T23:58:55.827Z,10.82
